Time;durP1;ratioP1;P1;durP2;ratioP2;P2;SDS_P1;SDS_P2;PMS_P1;PMS_P2;Temp;Humidity;BMP_temperature;BMP_pressure;BME280_temperature;BME280_humidity;BME280_pressure;Samples;Min_cycle;Max_cycle;Signal;HPM_P1;HPM_P2
2022/06/14 00:01:06;;;;;;;;;8.00;8.00;27.80;41.70;;;;;;5074086;28;8810;-77
2022/06/14 00:03:35;;;;;;;;;10.33;10.33;27.40;42.20;;;;;;5073915;28;8809;-78
2022/06/14 00:06:13;;;;;;;;;7.67;7.67;27.50;42.20;;;;;;5073943;28;11435;-77
2022/06/14 00:08:40;;;;;;;;;10.00;10.00;27.70;42.20;;;;;;5073937;28;11503;-77
2022/06/14 00:11:17;;;;;;;;;9.33;9.33;27.50;42.00;;;;;;5073922;28;11419;-78
2022/06/14 00:13:43;;;;;;;;;10.67;10.67;27.60;42.50;;;;;;5074307;28;11398;-77
2022/06/14 00:16:09;;;;;;;;;10.33;10.33;27.70;42.30;;;;;;5073715;28;12085;-77
2022/06/14 00:18:35;;;;;;;;;10.33;10.33;27.80;42.00;;;;;;5075024;28;11445;-78
2022/06/14 00:21:02;;;;;;;;;9.00;9.00;27.80;42.40;;;;;;5077631;28;11439;-78
2022/06/14 00:23:28;;;;;;;;;9.33;9.33;27.60;42.40;;;;;;5077653;28;8814;-78
2022/06/14 00:25:56;;;;;;;;;9.67;9.67;27.50;42.50;;;;;;5077486;28;11411;-77
2022/06/14 00:28:24;;;;;;;;;9.33;9.33;27.70;42.80;;;;;;5077511;28;11400;-77
2022/06/14 00:30:54;;;;;;;;;8.00;8.00;27.50;42.70;;;;;;5077794;28;11394;-76
2022/06/14 00:33:20;;;;;;;;;8.00;8.00;27.40;42.60;;;;;;5077666;28;12101;-77
2022/06/14 00:35:46;;;;;;;;;6.00;6.00;27.50;43.00;;;;;;5077439;28;11396;-76
2022/06/14 00:38:14;;;;;;;;;9.00;9.00;27.40;42.80;;;;;;5077594;28;11416;-75
2022/06/14 00:40:41;;;;;;;;;10.00;10.00;27.10;43.30;;;;;;5077563;28;11447;-77
2022/06/14 00:43:18;;;;;;;;;9.00;9.00;27.20;43.80;;;;;;5077092;28;11526;-78
2022/06/14 00:45:44;;;;;;;;;6.00;6.00;27.30;43.60;;;;;;5077474;28;11425;-77
2022/06/14 00:48:14;;;;;;;;;8.67;8.67;27.20;43.40;;;;;;5077111;28;12026;-77
2022/06/14 00:50:47;;;;;;;;;8.33;8.33;27.30;43.10;;;;;;5077225;28;8801;-78
2022/06/14 00:53:27;;;;;;;;;8.00;8.00;27.10;43.30;;;;;;5077060;28;11421;-79
2022/06/14 00:55:58;;;;;;;;;7.33;7.33;27.10;43.20;;;;;;5077111;28;12170;-79
2022/06/14 00:58:32;;;;;;;;;8.67;8.67;27.20;43.30;;;;;;5076994;28;11393;-78
2022/06/14 01:01:04;;;;;;;;;9.00;9.00;27.30;42.80;;;;;;5076970;28;11394;-78
2022/06/14 01:03:38;;;;;;;;;8.67;8.67;27.40;44.20;;;;;;5077072;28;11504;-78
2022/06/14 01:06:14;;;;;;;;;7.33;7.33;27.40;42.90;;;;;;5077055;28;11421;-77
2022/06/14 01:08:44;;;;;;;;;8.67;8.67;27.30;42.60;;;;;;5076892;28;11392;-78
2022/06/14 01:11:36;;;;;;;;;9.00;9.00;27.00;43.70;;;;;;5076725;28;11375;-77
2022/06/14 01:14:05;;;;;;;;;9.00;9.00;27.00;44.20;;;;;;5076611;28;11455;-77
2022/06/14 01:16:32;;;;;;;;;7.75;7.75;27.00;43.40;;;;;;5076701;28;11481;-79
2022/06/14 01:18:58;;;;;;;;;7.25;7.25;27.00;44.50;;;;;;5076540;28;11444;-78
2022/06/14 01:21:25;;;;;;;;;3.67;3.67;26.90;43.80;;;;;;5076848;28;11396;-78
2022/06/14 01:23:52;;;;;;;;;5.67;5.67;26.90;43.60;;;;;;5076380;28;11483;-77
2022/06/14 01:26:23;;;;;;;;;8.67;8.67;26.60;43.90;;;;;;5076258;28;11433;-77
2022/06/14 01:28:57;;;;;;;;;7.00;7.00;26.60;43.90;;;;;;5058755;28;11409;-79
2022/06/14 01:31:24;;;;;;;;;7.00;7.00;26.50;43.80;;;;;;5075515;28;11397;-79
2022/06/14 01:33:56;;;;;;;;;7.33;7.33;26.70;43.80;;;;;;5076413;28;11515;-78
2022/06/14 01:36:27;;;;;;;;;7.00;7.00;26.80;42.60;;;;;;5076597;28;11394;-78
2022/06/14 01:38:55;;;;;;;;;6.67;6.67;26.60;42.50;;;;;;5076210;28;11409;-79
2022/06/14 01:41:37;;;;;;;;;7.00;7.00;26.40;42.90;;;;;;5076177;28;11435;-79
2022/06/14 01:44:24;;;;;;;;;5.25;5.25;26.30;43.00;;;;;;5058230;28;11560;-75
2022/06/14 01:47:13;;;;;;;;;7.00;7.00;26.40;42.40;;;;;;5076275;28;11396;-79
2022/06/14 01:53:15;;;;;;;;;9.00;9.00;26.80;42.50;;;;;;5076103;28;11403;-78
2022/06/14 01:55:55;;;;;;;;;8.33;8.33;26.80;42.60;;;;;;5075938;28;11462;-78
2022/06/14 01:58:53;;;;;;;;;8.33;8.33;26.80;42.90;;;;;;5075841;28;11564;-78
2022/06/14 02:01:42;;;;;;;;;7.67;7.67;26.80;42.30;;;;;;5070105;28;11410;-78
2022/06/14 02:07:05;;;;;;;;;7.33;7.33;26.50;43.00;;;;;;5075833;28;11361;-78
2022/06/14 02:09:44;;;;;;;;;7.67;7.67;26.50;44.00;;;;;;5075518;28;11451;-77
2022/06/14 02:12:14;;;;;;;;;8.67;8.67;26.30;42.50;;;;;;5075341;28;11440;-76
2022/06/14 02:15:00;;;;;;;;;8.00;8.00;25.90;43.30;;;;;;5075594;28;11590;-77
2022/06/14 02:17:33;;;;;;;;;8.00;8.00;25.90;42.30;;;;;;5075183;28;11512;-79
2022/06/14 02:20:10;;;;;;;;;7.00;7.00;25.50;43.30;;;;;;5075440;28;11403;-77
2022/06/14 02:22:40;;;;;;;;;8.00;8.00;25.70;43.30;;;;;;5075258;28;11388;-76
2022/06/14 02:25:17;;;;;;;;;7.67;7.67;25.80;42.80;;;;;;5075543;28;11409;-78
2022/06/14 02:27:54;;;;;;;;;8.00;8.00;26.00;42.50;;;;;;5075074;28;11479;-75
2022/06/14 02:30:26;;;;;;;;;9.00;9.00;26.10;42.20;;;;;;5075226;28;11470;-76
2022/06/14 02:33:20;;;;;;;;;6.67;6.67;25.90;41.80;;;;;;5075129;28;11380;-78
2022/06/14 02:35:58;;;;;;;;;5.33;5.33;25.80;41.90;;;;;;5075125;28;11488;-75
2022/06/14 02:38:40;;;;;;;;;6.00;6.00;25.70;41.10;;;;;;5074997;28;11408;-78
2022/06/14 02:41:21;;;;;;;;;8.67;8.67;25.70;41.30;;;;;;5074935;28;11405;-76
2022/06/14 02:43:50;;;;;;;;;5.67;5.67;25.70;41.10;;;;;;5075154;28;11422;-76
2022/06/14 02:46:33;;;;;;;;;8.00;8.00;25.80;40.70;;;;;;5074894;28;11392;-76
2022/06/14 02:49:11;;;;;;;;;7.33;7.33;26.00;40.30;;;;;;5075029;28;11419;-77
2022/06/14 02:52:24;;;;;;;;;7.00;7.00;25.80;40.50;;;;;;5074984;28;11371;-77
2022/06/14 02:55:02;;;;;;;;;7.33;7.33;26.00;40.10;;;;;;5013021;28;11550;-76
2022/06/14 02:57:54;;;;;;;;;7.67;7.67;26.20;39.70;;;;;;5013073;28;11469;-75
2022/06/14 03:00:39;;;;;;;;;7.67;7.67;26.00;39.70;;;;;;5012654;28;11461;-75
2022/06/14 03:03:24;;;;;;;;;7.00;7.00;26.10;39.70;;;;;;5013336;28;11481;-77
2022/06/14 03:06:02;;;;;;;;;9.00;9.00;26.00;39.50;;;;;;5013291;28;12236;-77
2022/06/14 03:08:35;;;;;;;;;9.00;9.00;26.30;39.80;;;;;;5012822;28;12095;-76
2022/06/14 03:11:15;;;;;;;;;7.00;7.00;26.50;39.60;;;;;;5012563;28;11466;-78
2022/06/14 03:14:00;;;;;;;;;8.00;8.00;26.40;38.80;;;;;;5012682;28;12052;-76
2022/06/14 03:16:44;;;;;;;;;8.33;8.33;26.20;41.00;;;;;;5012695;28;12263;-77
2022/06/14 03:19:31;;;;;;;;;9.00;9.00;26.30;41.80;;;;;;5012424;28;12150;-75
2022/06/14 03:22:20;;;;;;;;;7.33;7.33;26.20;42.90;;;;;;5012685;28;11455;-76
2022/06/14 03:25:30;;;;;;;;;8.00;8.00;26.00;42.80;;;;;;4973157;28;12270;-76
2022/06/14 03:28:19;;;;;;;;;7.00;7.00;26.00;43.90;;;;;;5002101;28;11467;-77
2022/06/14 03:31:03;;;;;;;;;9.00;9.00;26.00;42.90;;;;;;5029871;28;11410;-77
2022/06/14 03:33:49;;;;;;;;;8.00;8.00;26.20;42.30;;;;;;5074499;28;12137;-77
2022/06/14 03:36:15;;;;;;;;;9.00;9.00;26.10;42.10;;;;;;5074166;28;11383;-77
2022/06/14 03:38:48;;;;;;;;;8.00;8.00;26.00;41.90;;;;;;5074240;28;8778;-77
2022/06/14 03:41:19;;;;;;;;;7.00;7.00;26.10;41.90;;;;;;5074121;28;11405;-75
2022/06/14 03:43:45;;;;;;;;;11.00;11.00;26.00;41.90;;;;;;5074074;28;9447;-76
2022/06/14 03:46:41;;;;;;;;;8.67;8.67;25.90;41.70;;;;;;5074046;28;8794;-76
2022/06/14 03:49:13;;;;;;;;;6.00;6.00;25.80;42.30;;;;;;5074046;28;11388;-78
2022/06/14 03:51:57;;;;;;;;;8.33;8.33;25.50;42.70;;;;;;5074019;28;11366;-76
2022/06/14 03:54:47;;;;;;;;;7.33;7.33;25.20;43.30;;;;;;5076891;28;11375;-77
2022/06/14 03:57:12;;;;;;;;;7.00;7.00;24.70;44.80;;;;;;5078328;28;8786;-77
2022/06/14 04:00:06;;;;;;;;;7.00;7.00;24.60;45.00;;;;;;5078174;28;11400;-75
2022/06/14 04:02:53;;;;;;;;;5.00;5.00;24.60;43.90;;;;;;5078226;28;8784;-77
2022/06/14 04:05:34;;;;;;;;;6.67;6.67;24.60;44.40;;;;;;5078100;28;11409;-76
2022/06/14 04:08:11;;;;;;;;;6.00;6.00;24.70;44.20;;;;;;5077823;28;11376;-75
2022/06/14 04:11:04;;;;;;;;;7.33;7.33;25.00;43.90;;;;;;5078316;28;9407;-78
2022/06/14 04:14:00;;;;;;;;;5.00;5.00;25.00;44.40;;;;;;5077942;28;12095;-77
2022/06/14 04:17:02;;;;;;;;;6.67;6.67;25.10;44.50;;;;;;5077640;28;11392;-77
2022/06/14 04:19:58;;;;;;;;;7.33;7.33;25.10;44.50;;;;;;5037547;28;12133;-78
2022/06/14 04:22:51;;;;;;;;;6.67;6.67;25.00;45.10;;;;;;5037574;28;8876;-77
2022/06/14 04:25:39;;;;;;;;;6.00;6.00;25.00;45.10;;;;;;5038050;28;8797;-80
2022/06/14 04:28:22;;;;;;;;;6.33;6.33;25.20;45.10;;;;;;5037965;28;11471;-76
2022/06/14 04:31:09;;;;;;;;;5.33;5.33;25.40;44.70;;;;;;5037572;28;11575;-77
2022/06/14 04:33:46;;;;;;;;;7.00;7.00;25.60;43.60;;;;;;5037695;28;11428;-77
2022/06/14 04:36:27;;;;;;;;;5.00;5.00;25.60;43.20;;;;;;5037593;28;11433;-76
2022/06/14 04:38:59;;;;;;;;;6.00;6.00;25.70;43.20;;;;;;5039576;28;8793;-78
2022/06/14 04:41:46;;;;;;;;;8.00;8.00;25.40;43.00;;;;;;5050318;28;11547;-74
2022/06/14 04:44:37;;;;;;;;;7.00;7.00;25.00;43.70;;;;;;5055427;28;11461;-74
2022/06/14 04:47:11;;;;;;;;;8.00;8.00;25.10;43.50;;;;;;5045267;28;12179;-74
2022/06/14 04:49:48;;;;;;;;;5.00;5.00;25.50;42.40;;;;;;5053887;28;8776;-74
2022/06/14 04:52:22;;;;;;;;;5.67;5.67;25.70;41.20;;;;;;5054385;28;12189;-74
2022/06/14 04:55:01;;;;;;;;;6.00;6.00;25.90;40.10;;;;;;5057429;28;11446;-74
2022/06/14 04:57:33;;;;;;;;;5.67;5.67;26.30;39.80;;;;;;5045139;28;11463;-74
2022/06/14 05:00:11;;;;;;;;;6.33;6.33;26.50;38.80;;;;;;5048266;28;11469;-74
2022/06/14 05:02:54;;;;;;;;;6.00;6.00;26.20;38.80;;;;;;5039257;28;11457;-71
2022/06/14 05:05:38;;;;;;;;;6.00;6.00;26.20;39.10;;;;;;5043413;28;11440;-74
2022/06/14 05:08:13;;;;;;;;;6.67;6.67;26.50;39.30;;;;;;5055578;28;11534;-73
2022/06/14 05:10:59;;;;;;;;;6.33;6.33;26.70;38.70;;;;;;5050171;28;11479;-73
2022/06/14 05:13:53;;;;;;;;;5.00;5.00;26.60;38.50;;;;;;5055815;28;11442;-72
2022/06/14 05:16:28;;;;;;;;;3.33;3.33;26.50;38.70;;;;;;5056178;28;11467;-72
2022/06/14 05:19:05;;;;;;;;;6.00;6.00;26.00;39.30;;;;;;5090089;28;11537;-74
2022/06/14 05:21:55;;;;;;;;;4.00;4.00;25.90;39.50;;;;;;5096845;28;11410;-73
2022/06/14 05:24:23;;;;;;;;;5.67;5.67;26.30;39.10;;;;;;5096453;28;11465;-73
2022/06/14 05:27:08;;;;;;;;;6.00;6.00;26.60;38.50;;;;;;5096623;28;11613;-73
2022/06/14 05:29:40;;;;;;;;;7.00;7.00;26.60;38.60;;;;;;5096537;28;11483;-72
2022/06/14 05:32:35;;;;;;;;;7.00;7.00;26.80;38.40;;;;;;5096405;28;11392;-72
2022/06/14 05:35:29;;;;;;;;;6.00;6.00;26.50;38.30;;;;;;5096453;28;12082;-72
2022/06/14 05:38:17;;;;;;;;;5.00;5.00;26.50;37.80;;;;;;5096423;28;11369;-72
2022/06/14 05:41:03;;;;;;;;;6.00;6.00;26.40;37.90;;;;;;5096489;28;11380;-72
2022/06/14 05:43:55;;;;;;;;;7.00;7.00;26.60;38.00;;;;;;5078337;28;11444;-72
2022/06/14 05:46:41;;;;;;;;;5.67;5.67;27.00;37.60;;;;;;5096166;28;11515;-72
2022/06/14 05:49:12;;;;;;;;;7.67;7.67;27.30;37.20;;;;;;5096186;28;11399;-73
2022/06/14 05:52:00;;;;;;;;;5.33;5.33;27.50;37.10;;;;;;5078243;28;11395;-72
2022/06/14 05:54:32;;;;;;;;;6.00;6.00;27.60;37.40;;;;;;5096149;28;11387;-72
2022/06/14 05:57:13;;;;;;;;;6.00;6.00;27.50;36.90;;;;;;5096218;28;11411;-73
2022/06/14 05:59:45;;;;;;;;;6.00;6.00;27.30;37.20;;;;;;5096011;28;11388;-72
2022/06/14 06:02:28;;;;;;;;;4.00;4.00;27.40;37.30;;;;;;5096350;28;11395;-72
2022/06/14 06:05:29;;;;;;;;;5.33;5.33;27.50;37.20;;;;;;5096237;28;11417;-73
2022/06/14 06:08:12;;;;;;;;;6.33;6.33;27.70;36.60;;;;;;5096094;28;11387;-72
2022/06/14 06:10:45;;;;;;;;;7.33;7.33;27.50;36.00;;;;;;5095747;28;11428;-72
2022/06/14 06:13:29;;;;;;;;;6.25;6.25;27.30;36.10;;;;;;5095830;28;11413;-73
2022/06/14 06:16:04;;;;;;;;;4.33;4.33;27.20;35.60;;;;;;5095373;28;11365;-73
2022/06/14 06:18:39;;;;;;;;;6.25;6.25;27.30;35.90;;;;;;5095448;28;11463;-73
2022/06/14 06:21:26;;;;;;;;;7.00;7.00;27.50;35.80;;;;;;5095718;28;11391;-73
2022/06/14 06:23:59;;;;;;;;;4.00;4.00;27.60;35.80;;;;;;5095573;28;11450;-73
2022/06/14 06:26:31;;;;;;;;;6.00;6.00;27.80;35.60;;;;;;5095432;28;11430;-73
2022/06/14 06:29:08;;;;;;;;;6.00;6.00;27.60;35.40;;;;;;5095514;28;11371;-73
2022/06/14 06:31:37;;;;;;;;;7.00;7.00;27.30;35.10;;;;;;5095523;28;11399;-73
2022/06/14 06:34:06;;;;;;;;;6.33;6.33;27.40;35.70;;;;;;5077429;28;11393;-73
2022/06/14 06:36:47;;;;;;;;;4.75;4.75;27.60;34.90;;;;;;5095293;28;12074;-73
2022/06/14 06:39:25;;;;;;;;;6.00;6.00;27.70;35.10;;;;;;5095350;28;11356;-72
2022/06/14 06:41:56;;;;;;;;;6.50;6.50;27.90;34.30;;;;;;5095228;28;11472;-72
2022/06/14 06:44:58;;;;;;;;;6.00;6.00;28.00;33.50;;;;;;5094767;28;11539;-73
2022/06/14 06:47:36;;;;;;;;;6.00;6.00;27.50;34.50;;;;;;5095428;28;11385;-72
2022/06/14 06:50:20;;;;;;;;;6.00;6.00;27.30;35.70;;;;;;5095080;28;12010;-72
2022/06/14 06:53:00;;;;;;;;;5.50;5.50;27.10;36.10;;;;;;5095088;28;11485;-73
2022/06/14 06:56:06;;;;;;;;;6.00;6.00;26.60;36.00;;;;;;5095015;28;11478;-73
2022/06/14 06:59:00;;;;;;;;;6.67;6.67;26.60;36.70;;;;;;5083047;28;11431;-73
2022/06/14 07:01:39;;;;;;;;;4.67;4.67;26.70;36.10;;;;;;5094178;28;11436;-72
2022/06/14 07:07:30;;;;;;;;;6.00;6.00;26.00;36.90;;;;;;5079779;28;12006;-73
2022/06/14 07:10:16;;;;;;;;;6.67;6.67;26.60;36.70;;;;;;5094993;28;11358;-72
2022/06/14 07:12:46;;;;;;;;;6.00;6.00;26.60;36.70;;;;;;5094986;28;11399;-73
2022/06/14 07:15:20;;;;;;;;;7.00;7.00;26.20;36.90;;;;;;5094969;28;12070;-73
2022/06/14 07:18:08;;;;;;;;;5.33;5.33;26.30;37.30;;;;;;5094543;28;11494;-72
2022/06/14 07:20:48;;;;;;;;;7.00;7.00;26.80;36.90;;;;;;5094661;28;11396;-73
2022/06/14 07:23:33;;;;;;;;;6.33;6.33;27.20;35.00;;;;;;5094505;28;11403;-72
2022/06/14 07:26:17;;;;;;;;;5.33;5.33;27.40;35.00;;;;;;5094723;28;11384;-73
2022/06/14 07:29:20;;;;;;;;;6.00;6.00;27.10;35.20;;;;;;5094153;28;11351;-72
2022/06/14 07:31:57;;;;;;;;;6.00;6.00;27.00;35.40;;;;;;5076639;28;11518;-72
2022/06/14 07:34:24;;;;;;;;;4.67;4.67;27.00;36.00;;;;;;5094448;28;11369;-73
2022/06/14 07:37:02;;;;;;;;;6.00;6.00;26.70;36.50;;;;;;5094313;28;11470;-72
2022/06/14 07:39:56;;;;;;;;;8.00;8.00;27.20;36.30;;;;;;5094178;28;12031;-72
2022/06/14 07:42:25;;;;;;;;;6.00;6.00;27.60;35.20;;;;;;4995665;28;11422;-72
2022/06/14 07:45:06;;;;;;;;;7.00;7.00;27.50;34.80;;;;;;5012103;28;11468;-72
2022/06/14 07:47:35;;;;;;;;;4.33;4.33;26.40;36.00;;;;;;5012327;28;11508;-72
2022/06/14 07:50:27;;;;;;;;;8.00;8.00;26.10;36.80;;;;;;5012149;28;11470;-72
2022/06/14 07:52:53;;;;;;;;;7.00;7.00;26.20;37.40;;;;;;5001924;28;11407;-72
2022/06/14 07:55:37;;;;;;;;;4.33;4.33;26.70;36.80;;;;;;5012238;28;11441;-73
2022/06/14 07:58:09;;;;;;;;;7.00;7.00;26.90;35.90;;;;;;5012375;28;8808;-72
2022/06/14 08:03:37;;;;;;;;;8.00;8.00;27.40;35.10;;;;;;4998547;28;11459;-72
2022/06/14 08:06:09;;;;;;;;;7.67;7.67;27.50;35.20;;;;;;5011952;28;11421;-73
2022/06/14 08:08:38;;;;;;;;;7.00;7.00;27.50;35.20;;;;;;5012115;28;11421;-72
2022/06/14 08:11:46;;;;;;;;;8.00;8.00;26.60;35.50;;;;;;5011902;28;11492;-72
2022/06/14 08:14:25;;;;;;;;;7.00;7.00;26.10;37.60;;;;;;5011635;28;11449;-72
2022/06/14 08:16:54;;;;;;;;;10.00;10.00;26.60;37.90;;;;;;5011960;28;12106;-73
2022/06/14 08:19:32;;;;;;;;;9.00;9.00;26.70;36.80;;;;;;5060523;28;11427;-73
2022/06/14 08:22:13;;;;;;;;;9.00;9.00;26.60;36.70;;;;;;5093977;28;11457;-73
2022/06/14 08:24:48;;;;;;;;;10.00;10.00;26.00;37.20;;;;;;5093974;28;12163;-73
2022/06/14 08:27:20;;;;;;;;;9.33;9.33;26.00;37.50;;;;;;5094203;28;11487;-73
2022/06/14 08:30:04;;;;;;;;;9.00;9.00;25.90;37.70;;;;;;5094093;28;11408;-72
2022/06/14 08:32:55;;;;;;;;;9.00;9.00;26.00;37.90;;;;;;5076117;28;11407;-73
2022/06/14 08:35:45;;;;;;;;;3.67;3.67;26.10;37.40;;;;;;5094024;28;11392;-73
2022/06/14 08:38:17;;;;;;;;;8.00;8.00;25.50;37.60;;;;;;5093864;28;11416;-72
2022/06/14 08:41:09;;;;;;;;;8.00;8.00;25.40;38.30;;;;;;5096951;28;11487;-72
2022/06/14 08:43:49;;;;;;;;;5.00;5.00;25.10;38.40;;;;;;5097578;28;11443;-72
2022/06/14 08:46:23;;;;;;;;;7.00;7.00;25.10;39.00;;;;;;5097684;28;12066;-72
2022/06/14 08:49:08;;;;;;;;;7.00;7.00;25.70;38.50;;;;;;5097414;28;11415;-72
2022/06/14 08:51:37;;;;;;;;;8.00;8.00;25.70;38.20;;;;;;5097445;28;11511;-73
2022/06/14 08:54:14;;;;;;;;;8.00;8.00;25.90;38.90;;;;;;5097288;28;11404;-73
2022/06/14 08:56:55;;;;;;;;;6.00;6.00;26.30;38.10;;;;;;5097471;28;11417;-72
2022/06/14 08:59:56;;;;;;;;;6.67;6.67;26.10;36.70;;;;;;5097380;28;11397;-73
2022/06/14 09:02:40;;;;;;;;;8.33;8.33;26.40;35.90;;;;;;5097287;28;12005;-73
2022/06/14 09:05:37;;;;;;;;;7.33;7.33;26.60;36.20;;;;;;5097127;28;11426;-73
2022/06/14 09:08:21;;;;;;;;;8.67;8.67;27.10;37.10;;;;;;5097111;28;11400;-73
2022/06/14 09:10:57;;;;;;;;;7.00;7.00;27.30;35.50;;;;;;5097202;28;11404;-72
2022/06/14 09:13:46;;;;;;;;;8.00;8.00;27.40;35.50;;;;;;5097028;28;11363;-72
2022/06/14 09:16:15;;;;;;;;;8.67;8.67;26.90;35.40;;;;;;5096909;28;11541;-72
2022/06/14 09:19:04;;;;;;;;;5.00;5.00;27.20;36.30;;;;;;5096807;28;11467;-73
2022/06/14 09:21:48;;;;;;;;;8.00;8.00;27.20;35.50;;;;;;5097194;28;11404;-73
2022/06/14 09:24:33;;;;;;;;;8.67;8.67;26.90;35.20;;;;;;5096683;28;11433;-72
2022/06/14 09:27:07;;;;;;;;;9.00;9.00;27.00;35.60;;;;;;5096983;28;11449;-72
2022/06/14 09:29:41;;;;;;;;;8.00;8.00;27.20;35.30;;;;;;5096585;28;11374;-73
2022/06/14 09:32:31;;;;;;;;;8.00;8.00;27.30;35.40;;;;;;5096606;28;11916;-73
2022/06/14 09:35:35;;;;;;;;;9.33;9.33;27.20;35.40;;;;;;5096664;28;12099;-73
2022/06/14 09:38:07;;;;;;;;;7.67;7.67;27.00;35.30;;;;;;5096405;28;11470;-72
2022/06/14 09:40:54;;;;;;;;;6.33;6.33;26.70;36.80;;;;;;5096413;28;11438;-73
2022/06/14 09:43:45;;;;;;;;;8.00;8.00;26.50;36.30;;;;;;5096370;28;11506;-72
2022/06/14 09:46:41;;;;;;;;;7.67;7.67;26.80;36.50;;;;;;5096171;28;11424;-72
2022/06/14 09:49:38;;;;;;;;;6.33;6.33;27.00;35.60;;;;;;5096590;28;11464;-77
2022/06/14 09:52:39;;;;;;;;;7.00;7.00;27.40;35.40;;;;;;5095774;28;11384;-76
2022/06/14 09:55:23;;;;;;;;;7.50;7.50;28.00;34.50;;;;;;5096155;28;11529;-76
2022/06/14 09:58:10;;;;;;;;;7.00;7.00;28.00;34.40;;;;;;5096476;28;11416;-77
2022/06/14 10:01:17;;;;;;;;;7.00;7.00;28.20;32.10;;;;;;5096107;28;11380;-76
2022/06/14 10:04:11;;;;;;;;;7.00;7.00;27.90;31.90;;;;;;5095423;28;11421;-77
2022/06/14 10:07:01;;;;;;;;;9.00;9.00;28.20;33.10;;;;;;5095826;28;11405;-77
2022/06/14 10:09:30;;;;;;;;;9.33;9.33;28.10;33.50;;;;;;5077786;28;11458;-76
2022/06/14 10:12:18;;;;;;;;;9.33;9.33;28.40;32.40;;;;;;5095313;28;11400;-77
2022/06/14 10:14:54;;;;;;;;;8.00;8.00;28.90;31.90;;;;;;5077379;28;11464;-77
2022/06/14 10:17:25;;;;;;;;;8.00;8.00;28.80;30.50;;;;;;5095644;28;11433;-76
2022/06/14 10:20:00;;;;;;;;;7.00;7.00;28.30;31.00;;;;;;5095563;28;12172;-77
2022/06/14 10:22:48;;;;;;;;;7.33;7.33;28.90;31.10;;;;;;5095826;28;11385;-77
2022/06/14 10:25:35;;;;;;;;;8.00;8.00;29.10;31.40;;;;;;5095597;28;11530;-77
2022/06/14 10:28:18;;;;;;;;;9.00;9.00;29.30;31.80;;;;;;5095873;28;11593;-76
2022/06/14 10:31:03;;;;;;;;;8.67;8.67;29.80;31.90;;;;;;5095695;28;11402;-77
2022/06/14 10:33:34;;;;;;;;;8.00;8.00;29.40;31.30;;;;;;5095779;28;12108;-76
2022/06/14 10:36:37;;;;;;;;;8.00;8.00;29.50;30.30;;;;;;5095428;28;12077;-77
2022/06/14 10:39:15;;;;;;;;;6.75;6.75;28.80;30.20;;;;;;5093604;28;11397;-76
2022/06/14 10:41:44;;;;;;;;;7.00;7.00;28.80;30.70;;;;;;5095378;28;11410;-77
2022/06/14 10:44:26;;;;;;;;;6.25;6.25;28.30;30.80;;;;;;5095209;28;12120;-77
2022/06/14 10:47:21;;;;;;;;;5.25;5.25;28.20;30.90;;;;;;5095118;28;11385;-77
2022/06/14 10:50:06;;;;;;;;;8.00;8.00;28.90;30.10;;;;;;5095488;28;11358;-77
2022/06/14 10:52:52;;;;;;;;;6.75;6.75;29.30;30.30;;;;;;5095239;28;11491;-76
2022/06/14 10:55:33;;;;;;;;;7.75;7.75;29.90;30.30;;;;;;5095113;28;11376;-77
2022/06/14 10:58:42;;;;;;;;;6.00;6.00;30.30;28.80;;;;;;5077328;28;11426;-77
2022/06/14 11:01:36;;;;;;;;;7.00;7.00;30.00;28.90;;;;;;5094807;28;11379;-77
2022/06/14 11:04:21;;;;;;;;;8.25;8.25;30.20;27.50;;;;;;5094980;28;11432;-77
2022/06/14 11:06:56;;;;;;;;;7.00;7.00;29.80;28.40;;;;;;5094844;28;11499;-77
2022/06/14 11:09:48;;;;;;;;;7.00;7.00;29.80;27.80;;;;;;5094990;28;11481;-77
2022/06/14 11:12:51;;;;;;;;;7.25;7.25;30.70;28.40;;;;;;5056917;28;11473;-77
2022/06/14 11:15:37;;;;;;;;;7.00;7.00;31.00;28.40;;;;;;5081803;28;11421;-77
2022/06/14 11:18:15;;;;;;;;;6.00;6.00;30.80;27.70;;;;;;5094486;28;11426;-77
2022/06/14 11:20:55;;;;;;;;;5.50;5.50;30.80;27.20;;;;;;5094699;28;11791;-77
2022/06/14 11:23:49;;;;;;;;;6.75;6.75;31.60;26.80;;;;;;5094614;28;11542;-77
2022/06/14 11:26:47;;;;;;;;;7.00;7.00;31.90;27.60;;;;;;5094709;28;12141;-76
2022/06/14 11:29:37;;;;;;;;;5.00;5.00;32.90;25.70;;;;;;5094797;28;12100;-77
2022/06/14 11:32:22;;;;;;;;;3.25;3.25;33.00;25.70;;;;;;5094486;28;11398;-77
2022/06/14 11:35:19;;;;;;;;;7.00;7.00;32.90;25.80;;;;;;5094371;28;11400;-77
2022/06/14 11:38:16;;;;;;;;;6.00;6.00;31.60;25.70;;;;;;5094315;28;11430;-77
2022/06/14 11:40:47;;;;;;;;;6.25;6.25;32.30;26.20;;;;;;5094131;28;11554;-72
2022/06/14 11:43:22;;;;;;;;;8.50;8.50;32.40;25.30;;;;;;5089813;28;11392;-72
2022/06/14 11:45:59;;;;;;;;;6.00;6.00;32.70;26.40;;;;;;5090240;28;11555;-72
2022/06/14 11:48:33;;;;;;;;;4.75;4.75;32.80;25.10;;;;;;5092860;28;11388;-73
2022/06/14 11:51:36;;;;;;;;;4.50;4.50;31.90;24.30;;;;;;5088411;28;11376;-72
2022/06/14 11:54:28;;;;;;;;;6.25;6.25;32.80;25.20;;;;;;5087563;28;12099;-71
2022/06/14 11:57:14;;;;;;;;;5.50;5.50;33.20;25.70;;;;;;5076317;28;11397;-72
2022/06/14 12:00:12;;;;;;;;;6.00;6.00;32.90;24.70;;;;;;5092448;28;11377;-72
2022/06/14 12:02:52;;;;;;;;;4.75;4.75;33.20;24.70;;;;;;5090268;28;11460;-71
2022/06/14 12:05:37;;;;;;;;;4.00;4.00;33.20;25.00;;;;;;5090253;28;11512;-70
2022/06/14 12:08:39;;;;;;;;;6.00;6.00;33.20;24.00;;;;;;5091085;28;11498;-71
2022/06/14 12:11:24;;;;;;;;;5.00;5.00;33.60;24.40;;;;;;5093494;28;11498;-71
2022/06/14 12:14:23;;;;;;;;;7.50;7.50;34.10;23.50;;;;;;5092390;28;11395;-72
2022/06/14 12:17:03;;;;;;;;;7.25;7.25;34.80;23.60;;;;;;5095813;28;11478;-71
2022/06/14 12:19:34;;;;;;;;;4.00;4.00;34.50;22.60;;;;;;5096296;28;12100;-72
2022/06/14 12:22:28;;;;;;;;;5.75;5.75;34.40;22.30;;;;;;5097804;28;12223;-73
2022/06/14 12:28:45;;;;;;;;;4.75;4.75;34.70;23.30;;;;;;5089073;28;11397;-72
2022/06/14 12:31:26;;;;;;;;;7.00;7.00;35.10;22.90;;;;;;5086406;28;11410;-71
2022/06/14 12:34:08;;;;;;;;;4.75;4.75;34.50;23.60;;;;;;5095586;28;11415;-73
2022/06/14 12:37:20;;;;;;;;;6.25;6.25;33.10;23.60;;;;;;5097786;28;11467;-73
2022/06/14 12:40:03;;;;;;;;;7.00;7.00;33.40;24.20;;;;;;5081698;28;11408;-73
2022/06/14 12:42:50;;;;;;;;;9.25;9.25;34.00;24.10;;;;;;5086517;28;11388;-72
2022/06/14 12:45:29;;;;;;;;;6.75;6.75;34.20;23.70;;;;;;5094050;28;11503;-72
2022/06/14 12:48:23;;;;;;;;;7.25;7.25;34.30;23.10;;;;;;5091481;28;11440;-72
2022/06/14 12:50:58;;;;;;;;;7.75;7.75;35.00;23.80;;;;;;5093527;28;11414;-74
2022/06/14 12:53:30;;;;;;;;;5.75;5.75;35.10;22.90;;;;;;5092684;28;11373;-73
2022/06/14 12:56:01;;;;;;;;;6.75;6.75;35.30;22.10;;;;;;5093905;28;11376;-73
2022/06/14 12:58:59;;;;;;;;;5.75;5.75;35.30;22.60;;;;;;5095984;28;11496;-73
2022/06/14 13:01:52;;;;;;;;;5.75;5.75;34.50;21.70;;;;;;5081321;28;11405;-74
2022/06/14 13:04:44;;;;;;;;;7.00;7.00;34.10;22.80;;;;;;5093809;28;11417;-72
2022/06/14 13:07:26;;;;;;;;;6.00;6.00;34.70;23.80;;;;;;5095721;28;11370;-70
2022/06/14 13:10:19;;;;;;;;;6.75;6.75;34.30;23.40;;;;;;5094619;28;11399;-68
2022/06/14 13:13:02;;;;;;;;;5.75;5.75;34.20;22.90;;;;;;5094901;28;12129;-69
2022/06/14 13:15:57;;;;;;;;;6.75;6.75;33.70;22.20;;;;;;5095189;28;12198;-71
2022/06/14 13:18:37;;;;;;;;;7.00;7.00;33.90;22.90;;;;;;5087809;28;11449;-75
2022/06/14 13:21:34;;;;;;;;;6.25;6.25;34.30;23.00;;;;;;5091736;28;11378;-74
2022/06/14 13:24:24;;;;;;;;;7.00;7.00;34.20;22.70;;;;;;5093970;28;11532;-73
2022/06/14 13:27:19;;;;;;;;;6.50;6.50;34.50;22.60;;;;;;5094058;28;11498;-72
2022/06/14 13:30:22;;;;;;;;;5.00;5.00;33.10;23.60;;;;;;5094684;28;11348;-74
2022/06/14 13:33:23;;;;;;;;;6.00;6.00;33.30;24.70;;;;;;5094556;28;11402;-73
2022/06/14 13:36:27;;;;;;;;;8.00;8.00;33.20;23.70;;;;;;5092814;28;11432;-71
2022/06/14 13:39:21;;;;;;;;;6.75;6.75;33.50;23.50;;;;;;5093050;28;11454;-71
2022/06/14 13:42:03;;;;;;;;;5.75;5.75;33.90;23.40;;;;;;5076876;28;11419;-72
2022/06/14 13:44:37;;;;;;;;;6.50;6.50;34.60;23.60;;;;;;5093103;28;11453;-72
2022/06/14 13:47:15;;;;;;;;;5.00;5.00;33.70;22.40;;;;;;5092043;28;11413;-72
2022/06/14 13:49:49;;;;;;;;;6.00;6.00;33.80;22.40;;;;;;5095071;28;11505;-71
2022/06/14 13:52:15;;;;;;;;;4.00;4.00;34.20;22.30;;;;;;5092364;28;11395;-72
2022/06/14 13:54:56;;;;;;;;;5.75;5.75;33.40;22.70;;;;;;5092245;28;11398;-72
2022/06/14 13:57:31;;;;;;;;;7.50;7.50;33.20;22.80;;;;;;5094804;28;9566;-73
2022/06/14 14:00:13;;;;;;;;;3.75;3.75;32.50;23.40;;;;;;5092455;28;11372;-72
2022/06/14 14:02:48;;;;;;;;;6.50;6.50;32.80;23.70;;;;;;5092660;28;11401;-71
2022/06/14 14:05:28;;;;;;;;;6.50;6.50;32.80;23.50;;;;;;5092135;28;11451;-73
2022/06/14 14:08:14;;;;;;;;;6.50;6.50;32.50;22.80;;;;;;5089159;28;11388;-73
2022/06/14 14:10:45;;;;;;;;;6.50;6.50;32.40;23.30;;;;;;5100740;28;11421;-70
2022/06/14 14:13:25;;;;;;;;;2.75;2.75;32.60;23.60;;;;;;5082526;28;12066;-71
2022/06/14 14:16:10;;;;;;;;;5.75;5.75;32.60;23.10;;;;;;5086442;28;11383;-71
2022/06/14 14:18:51;;;;;;;;;3.75;3.75;32.30;23.70;;;;;;5083856;28;11418;-71